createdAt,value
2023-04-25T00:00:15.351Z,1.98
2023-04-25T00:02:42.714Z,2.20
2023-04-25T00:05:10.261Z,2.30
2023-04-25T00:07:36.892Z,2.33
2023-04-25T00:10:04.617Z,2.50
2023-04-25T00:12:31.197Z,2.00
2023-04-25T00:15:00.984Z,2.00
2023-04-25T00:17:27.910Z,1.90
2023-04-25T00:19:54.553Z,1.90
2023-04-25T00:22:22.117Z,1.67
2023-04-25T00:24:48.826Z,1.77
2023-04-25T00:27:15.408Z,2.30
2023-04-25T00:29:41.922Z,2.13
2023-04-25T00:32:08.550Z,2.08
2023-04-25T00:34:36.150Z,2.78
2023-04-25T00:37:03.264Z,1.80
2023-04-25T00:39:29.878Z,1.70
2023-04-25T00:41:56.592Z,2.53
2023-04-25T00:44:23.401Z,1.83
2023-04-25T00:46:52.507Z,1.90
2023-04-25T00:49:19.023Z,1.80
2023-04-25T00:51:45.805Z,1.92
2023-04-25T00:54:13.652Z,1.95
2023-04-25T00:56:40.718Z,2.00
2023-04-25T00:59:07.554Z,2.13
2023-04-25T01:01:34.459Z,1.92
2023-04-25T01:04:02.088Z,2.10
2023-04-25T01:06:28.673Z,1.90
2023-04-25T01:08:55.455Z,2.30
2023-04-25T01:11:21.988Z,2.08
2023-04-25T01:13:48.914Z,2.42
2023-04-25T01:16:16.143Z,2.47
2023-04-25T01:18:43.597Z,2.15
2023-04-25T01:21:11.826Z,2.17
2023-04-25T01:23:41.001Z,2.40
2023-04-25T01:26:09.742Z,2.10
2023-04-25T01:28:36.754Z,2.22
2023-04-25T01:31:03.863Z,2.25
2023-04-25T01:33:30.721Z,1.85
2023-04-25T01:35:57.181Z,2.00
2023-04-25T01:38:23.806Z,1.92
2023-04-25T01:40:52.198Z,1.80
2023-04-25T01:43:19.002Z,1.70
2023-04-25T01:45:45.742Z,2.13
2023-04-25T01:48:14.124Z,1.90
2023-04-25T01:50:41.592Z,2.00
2023-04-25T01:53:10.429Z,2.15
2023-04-25T01:55:36.931Z,2.53
2023-04-25T01:58:04.746Z,1.67
2023-04-25T02:00:31.303Z,2.00
2023-04-25T02:03:00.708Z,2.25
2023-04-25T02:05:27.273Z,2.20
2023-04-25T02:07:53.789Z,2.47
2023-04-25T02:10:20.498Z,2.13
2023-04-25T02:12:46.926Z,1.90
2023-04-25T02:15:13.365Z,1.80
2023-04-25T02:17:40.221Z,1.92
2023-04-25T02:20:07.288Z,2.30
2023-04-25T02:22:35.030Z,1.85
2023-04-25T02:25:01.526Z,2.40
2023-04-25T02:27:28.045Z,2.20
2023-04-25T02:29:54.530Z,1.80
2023-04-25T02:32:21.486Z,1.95
2023-04-25T02:34:49.010Z,2.08
2023-04-25T02:37:15.639Z,2.15
2023-04-25T02:39:42.060Z,2.40
2023-04-25T02:42:08.578Z,1.90
2023-04-25T02:44:35.081Z,1.85
2023-04-25T02:47:01.617Z,2.30
2023-04-25T02:49:28.210Z,2.33
2023-04-25T02:51:54.683Z,2.40
2023-04-25T02:54:21.163Z,2.25
2023-04-25T02:56:47.653Z,2.00
2023-04-25T02:59:14.143Z,2.40
2023-04-25T03:01:40.580Z,2.63
2023-04-25T03:04:07.897Z,2.72
2023-04-25T03:06:34.347Z,2.78
2023-04-25T03:09:00.844Z,2.85
2023-04-25T03:11:28.289Z,2.70
2023-04-25T03:13:54.784Z,2.75
2023-04-25T03:16:21.401Z,3.92
2023-04-25T03:18:47.950Z,3.03
2023-04-25T03:21:14.435Z,3.00
2023-04-25T03:23:41.032Z,3.38
2023-04-25T03:26:07.548Z,3.00
2023-04-25T03:28:33.997Z,3.08
2023-04-25T03:31:00.529Z,2.95
2023-04-25T03:33:27.052Z,3.33
2023-04-25T03:35:53.989Z,3.70
2023-04-25T03:38:20.542Z,3.60
2023-04-25T03:40:47.098Z,3.30
2023-04-25T03:43:13.558Z,3.20
2023-04-25T03:45:40.478Z,3.13
2023-04-25T03:48:07.039Z,4.03
2023-04-25T03:50:33.661Z,3.63
2023-04-25T03:53:00.217Z,3.47
2023-04-25T03:55:26.693Z,3.60
2023-04-25T03:57:53.254Z,4.82
2023-04-25T04:00:19.730Z,3.30
2023-04-25T04:02:46.630Z,4.05
2023-04-25T04:05:13.883Z,2.90
2023-04-25T04:07:41.215Z,4.25
2023-04-25T04:10:08.631Z,4.47
2023-04-25T04:12:35.188Z,4.53
2023-04-25T04:15:04.534Z,3.97
2023-04-25T04:17:31.354Z,3.22
2023-04-25T04:19:57.947Z,3.22
2023-04-25T04:22:25.037Z,4.32
2023-04-25T04:24:51.908Z,4.45
2023-04-25T04:27:23.737Z,3.20
2023-04-25T04:29:52.509Z,3.00
2023-04-25T04:32:19.179Z,3.05
2023-04-25T04:34:45.822Z,3.55
2023-04-25T04:37:14.425Z,3.30
2023-04-25T04:39:41.030Z,2.97
2023-04-25T04:42:08.000Z,3.25
2023-04-25T04:44:35.410Z,3.67
2023-04-25T04:47:03.015Z,2.83
2023-04-25T04:49:29.668Z,2.90
2023-04-25T04:51:58.411Z,3.05
2023-04-25T04:54:26.574Z,2.00
2023-04-25T04:56:53.540Z,2.05
2023-04-25T04:59:20.057Z,1.83
2023-04-25T05:01:47.809Z,1.40
2023-04-25T05:04:14.414Z,1.90
2023-04-25T05:06:41.488Z,1.98
2023-04-25T05:09:08.035Z,1.70
2023-04-25T05:11:34.556Z,1.40
2023-04-25T05:14:01.102Z,1.70
2023-04-25T05:16:29.091Z,1.58
2023-04-25T05:18:55.726Z,1.80
2023-04-25T05:21:22.481Z,1.42
2023-04-25T05:23:49.051Z,1.48
2023-04-25T05:26:15.832Z,1.30
2023-04-25T05:28:43.208Z,1.40
2023-04-25T05:31:12.780Z,1.25
2023-04-25T05:33:39.355Z,1.48
2023-04-25T05:36:06.391Z,1.40
2023-04-25T05:38:34.812Z,1.92
2023-04-25T05:41:01.750Z,1.02
2023-04-25T05:43:28.316Z,1.20
2023-04-25T05:45:54.983Z,1.58
2023-04-25T05:48:21.511Z,1.33
2023-04-25T05:50:48.130Z,1.42
2023-04-25T05:53:14.602Z,1.00
2023-04-25T05:55:41.046Z,0.98
2023-04-25T05:58:08.132Z,1.20
2023-04-25T06:00:34.813Z,0.90
2023-04-25T06:03:02.173Z,1.00
2023-04-25T06:05:28.980Z,1.50
2023-04-25T06:07:55.600Z,1.10
2023-04-25T06:10:23.551Z,1.65
2023-04-25T06:12:50.442Z,1.20
2023-04-25T06:15:27.991Z,1.20
2023-04-25T06:17:55.528Z,1.10
2023-04-25T06:20:25.613Z,1.63
2023-04-25T06:22:55.403Z,1.05
2023-04-25T06:25:22.178Z,2.20
2023-04-25T06:27:48.805Z,1.00
2023-04-25T06:30:16.230Z,1.42
2023-04-25T06:32:42.897Z,1.92
2023-04-25T06:35:09.876Z,1.73
2023-04-25T06:37:36.404Z,1.48
2023-04-25T06:40:03.505Z,1.80
2023-04-25T06:42:30.025Z,1.27
2023-04-25T06:44:56.861Z,2.15
2023-04-25T06:47:23.405Z,1.25
2023-04-25T06:49:50.392Z,1.25
2023-04-25T06:52:18.927Z,0.90
2023-04-25T06:54:46.165Z,1.13
2023-04-25T06:57:12.935Z,0.88
2023-04-25T06:59:39.613Z,1.00
2023-04-25T07:02:07.095Z,1.05
2023-04-25T07:04:33.908Z,0.95
2023-04-25T07:07:01.949Z,0.80
2023-04-25T07:09:28.430Z,1.23
2023-04-25T07:11:54.960Z,1.25
2023-04-25T07:14:21.466Z,0.85
2023-04-25T07:16:48.392Z,0.98
2023-04-25T07:19:15.077Z,1.50
2023-04-25T07:21:41.533Z,1.08
2023-04-25T07:24:08.061Z,1.05
2023-04-25T07:26:34.532Z,0.90
2023-04-25T07:29:00.996Z,1.63
2023-04-25T07:31:27.874Z,1.15
2023-04-25T07:33:54.385Z,1.20
2023-04-25T07:36:21.971Z,1.35
2023-04-25T07:38:48.624Z,1.35
2023-04-25T07:41:15.293Z,1.60
2023-04-25T07:43:41.818Z,1.80
2023-04-25T07:46:08.345Z,1.75
2023-04-25T07:48:34.863Z,2.13
2023-04-25T07:51:01.314Z,1.92
2023-04-25T07:53:27.749Z,1.50
2023-04-25T07:55:54.281Z,1.75
2023-04-25T07:58:22.907Z,1.30
2023-04-25T08:00:50.030Z,1.92
2023-04-25T08:03:16.741Z,1.60
2023-04-25T08:05:43.952Z,1.40
2023-04-25T08:08:10.651Z,1.45
2023-04-25T08:10:37.237Z,2.05
2023-04-25T08:13:04.008Z,1.60
2023-04-25T08:15:30.784Z,1.38
2023-04-25T08:17:57.466Z,1.88
2023-04-25T08:20:24.085Z,1.35
2023-04-25T08:22:50.690Z,1.83
2023-04-25T08:25:17.160Z,1.35
2023-04-25T08:27:44.381Z,1.20
2023-04-25T08:30:11.231Z,1.15
2023-04-25T08:32:39.830Z,1.30
2023-04-25T08:35:07.187Z,0.98
2023-04-25T08:37:33.721Z,1.13
2023-04-25T08:40:00.223Z,1.40
2023-04-25T08:42:28.392Z,1.30
2023-04-25T08:44:56.229Z,1.30
2023-04-25T08:47:23.810Z,1.33
2023-04-25T08:49:51.834Z,1.45
2023-04-25T08:52:23.245Z,1.25
2023-04-25T08:54:50.549Z,1.02
2023-04-25T08:57:18.266Z,1.17
2023-04-25T08:59:46.933Z,1.70
2023-04-25T09:02:16.850Z,1.10
2023-04-25T09:04:45.156Z,1.20
2023-04-25T09:07:11.740Z,1.40
2023-04-25T09:09:38.288Z,0.90
2023-04-25T09:12:06.197Z,0.98
2023-04-25T09:14:32.966Z,1.55
2023-04-25T09:17:01.910Z,0.98
2023-04-25T09:19:41.090Z,0.90
2023-04-25T09:22:09.047Z,0.90
2023-04-25T09:24:47.153Z,0.98
2023-04-25T09:27:19.248Z,1.00
2023-04-25T09:29:45.770Z,0.80
2023-04-25T09:32:19.012Z,1.00
2023-04-25T09:37:30.572Z,0.80
2023-04-25T09:40:04.124Z,1.23
2023-04-25T09:42:32.842Z,0.75
2023-04-25T09:45:00.058Z,0.80
2023-04-25T09:47:27.817Z,1.00
2023-04-25T09:49:56.023Z,0.68
2023-04-25T09:52:25.782Z,1.20
2023-04-25T09:54:53.394Z,0.90
2023-04-25T09:57:24.860Z,1.10
2023-04-25T09:59:56.026Z,1.00
2023-04-25T10:02:26.148Z,0.80
2023-04-25T10:04:56.218Z,1.05
2023-04-25T10:07:27.208Z,1.20
2023-04-25T10:10:02.766Z,1.55
2023-04-25T10:12:29.613Z,1.17
2023-04-25T10:14:56.314Z,0.82
2023-04-25T10:17:23.584Z,1.48
2023-04-25T10:19:50.165Z,1.48
2023-04-25T10:22:31.570Z,1.42
2023-04-25T10:24:58.595Z,1.00
2023-04-25T10:27:25.188Z,1.10
2023-04-25T10:30:05.481Z,1.00
2023-04-25T10:32:35.948Z,1.00
2023-04-25T10:35:20.145Z,1.40
2023-04-25T10:38:06.394Z,1.33
2023-04-25T10:40:34.451Z,1.02
2023-04-25T10:43:31.859Z,0.85
2023-04-25T10:46:00.417Z,0.75
2023-04-25T10:48:35.829Z,0.70
2023-04-25T10:51:13.110Z,0.88
2023-04-25T10:53:39.554Z,0.70
2023-04-25T10:56:19.760Z,0.80
2023-04-25T10:58:47.706Z,0.85
2023-04-25T11:01:20.955Z,0.88
2023-04-25T11:03:51.498Z,0.80
2023-04-25T11:06:33.443Z,1.00
2023-04-25T11:09:02.506Z,0.98
2023-04-25T11:11:30.400Z,1.05
2023-04-25T11:13:56.890Z,0.93
2023-04-25T11:16:28.444Z,0.93
2023-04-25T11:18:58.396Z,1.35
2023-04-25T11:21:27.446Z,0.88
2023-04-25T11:23:55.669Z,0.85
2023-04-25T11:26:23.295Z,1.05
2023-04-25T11:28:50.461Z,0.93
2023-04-25T11:31:16.979Z,0.80
2023-04-25T11:33:43.664Z,1.23
2023-04-25T11:36:11.088Z,0.77
2023-04-25T11:38:37.558Z,1.08
2023-04-25T11:41:04.124Z,5.15
2023-04-25T11:43:30.789Z,4.10
2023-04-25T11:45:57.585Z,11.52
2023-04-25T11:48:25.892Z,5.90
2023-04-25T11:50:52.719Z,1.17
2023-04-25T11:53:19.619Z,1.00
2023-04-25T11:55:46.339Z,0.70
2023-04-25T11:58:14.801Z,1.00
2023-04-25T12:00:50.411Z,0.82
2023-04-25T12:03:19.429Z,0.80
2023-04-25T12:05:47.426Z,0.88
2023-04-25T12:08:15.662Z,0.60
2023-04-25T12:10:44.262Z,0.80
2023-04-25T12:13:25.683Z,1.20
2023-04-25T12:15:52.947Z,0.90
2023-04-25T12:18:25.232Z,11.55
2023-04-25T12:20:53.588Z,12.98
2023-04-25T12:23:27.632Z,1.20
2023-04-25T12:25:54.201Z,0.98
2023-04-25T12:28:24.743Z,1.20
2023-04-25T12:31:01.773Z,1.00
2023-04-25T12:33:30.621Z,1.35
2023-04-25T12:35:58.606Z,0.80
2023-04-25T12:38:30.012Z,1.17
2023-04-25T12:40:56.975Z,1.10
2023-04-25T12:43:24.257Z,1.30
2023-04-25T12:45:54.913Z,1.30
2023-04-25T12:48:22.276Z,1.02
2023-04-25T12:50:50.402Z,1.10
2023-04-25T12:53:21.470Z,1.40
2023-04-25T12:55:48.535Z,0.90
2023-04-25T12:58:16.190Z,1.10
2023-04-25T13:00:44.170Z,0.95
2023-04-25T13:03:14.723Z,1.10
2023-04-25T13:05:42.104Z,1.27
2023-04-25T13:08:09.017Z,0.70
2023-04-25T13:10:37.044Z,0.93
2023-04-25T13:13:03.710Z,0.70
2023-04-25T13:15:30.363Z,0.73
2023-04-25T13:17:57.204Z,0.73
2023-04-25T13:20:23.945Z,0.80
2023-04-25T13:22:50.880Z,0.80
2023-04-25T13:25:17.750Z,0.88
2023-04-25T13:27:45.726Z,0.93
2023-04-25T13:30:12.500Z,0.65
2023-04-25T13:32:39.491Z,0.80
2023-04-25T13:35:10.458Z,1.10
2023-04-25T13:37:37.771Z,0.70
2023-04-25T13:40:10.857Z,0.70
2023-04-25T13:45:08.621Z,0.40
2023-04-25T13:47:35.542Z,0.45
2023-04-25T13:50:04.105Z,0.50
2023-04-25T13:52:30.717Z,0.60
2023-04-25T13:54:57.208Z,0.50
2023-04-25T13:57:23.677Z,0.60
2023-04-25T13:59:50.179Z,0.70
2023-04-25T14:02:16.769Z,0.70
2023-04-25T14:04:43.705Z,0.90
2023-04-25T14:07:11.882Z,0.93
2023-04-25T14:09:38.356Z,0.68
2023-04-25T14:12:04.999Z,0.93
2023-04-25T14:14:31.484Z,0.90
2023-04-25T14:16:58.333Z,0.70
2023-04-25T14:19:25.631Z,0.88
2023-04-25T14:21:52.229Z,0.75
2023-04-25T14:24:18.739Z,0.80
2023-04-25T14:26:45.610Z,0.52
2023-04-25T14:29:15.256Z,1.48
2023-04-25T14:31:42.315Z,0.68
2023-04-25T14:34:09.134Z,1.00
2023-04-25T14:36:36.817Z,0.85
2023-04-25T14:39:04.032Z,0.43
2023-04-25T14:41:30.476Z,0.45
2023-04-25T14:43:58.087Z,0.50
2023-04-25T14:46:24.825Z,0.77
2023-04-25T14:48:52.169Z,0.75
2023-04-25T14:51:18.679Z,0.73
2023-04-25T14:53:45.561Z,0.73
2023-04-25T14:56:12.156Z,0.63
2023-04-25T14:58:39.874Z,0.70
2023-04-25T15:01:07.773Z,0.60
2023-04-25T15:03:34.500Z,0.70
2023-04-25T15:06:01.226Z,0.95
2023-04-25T15:08:27.670Z,0.50
2023-04-25T15:10:54.383Z,0.80
2023-04-25T15:13:21.289Z,0.80
2023-04-25T15:15:52.091Z,0.80
2023-04-25T15:18:23.695Z,0.77
2023-04-25T15:20:51.846Z,0.80
2023-04-25T15:23:19.509Z,0.73
2023-04-25T15:25:46.762Z,0.57
2023-04-25T15:28:15.937Z,0.90
2023-04-25T15:30:43.221Z,0.73
2023-04-25T15:33:09.677Z,0.90
2023-04-25T15:35:36.352Z,0.90
2023-04-25T15:38:02.866Z,0.82
2023-04-25T15:40:29.343Z,0.90
2023-04-25T15:42:55.892Z,1.02
2023-04-25T15:45:26.041Z,1.10
2023-04-25T15:47:55.831Z,0.80
2023-04-25T15:50:22.890Z,0.98
2023-04-25T15:52:50.911Z,0.85
2023-04-25T15:55:19.043Z,1.15
2023-04-25T15:57:45.514Z,1.20
2023-04-25T16:00:13.287Z,1.00
2023-04-25T16:02:41.364Z,1.00
2023-04-25T16:05:09.287Z,1.52
2023-04-25T16:07:36.271Z,1.40
2023-04-25T16:10:03.086Z,2.00
2023-04-25T16:12:31.092Z,1.33
2023-04-25T16:14:58.230Z,1.15
2023-04-25T16:17:25.562Z,1.30
2023-04-25T16:19:52.217Z,1.10
2023-04-25T16:22:18.731Z,1.17
2023-04-25T16:24:45.364Z,1.52
2023-04-25T16:27:12.313Z,1.20
2023-04-25T16:29:39.412Z,1.17
2023-04-25T16:32:06.138Z,1.05
2023-04-25T16:34:32.902Z,1.45
2023-04-25T16:36:59.909Z,0.80
2023-04-25T16:39:26.427Z,1.20
2023-04-25T16:41:53.374Z,1.17
2023-04-25T16:44:19.899Z,1.58
2023-04-25T16:46:46.415Z,1.40
2023-04-25T16:49:12.991Z,1.42
2023-04-25T16:51:39.561Z,1.30
2023-04-25T16:54:06.441Z,1.30
2023-04-25T16:56:32.880Z,1.50
2023-04-25T16:58:59.384Z,1.40
2023-04-25T17:01:25.913Z,1.20
2023-04-25T17:03:52.600Z,1.23
2023-04-25T17:06:19.261Z,1.38
2023-04-25T17:08:45.860Z,1.40
2023-04-25T17:11:12.522Z,2.30
2023-04-25T17:13:39.084Z,1.50
2023-04-25T17:16:06.356Z,1.55
2023-04-25T17:18:32.903Z,1.50
2023-04-25T17:20:59.528Z,1.27
2023-04-25T17:23:26.271Z,1.40
2023-04-25T17:25:54.291Z,1.65
2023-04-25T17:28:20.846Z,1.70
2023-04-25T17:30:47.475Z,1.65
2023-04-25T17:33:14.050Z,1.65
2023-04-25T17:35:40.699Z,1.60
2023-04-25T17:38:07.237Z,1.65
2023-04-25T17:40:33.685Z,1.63
2023-04-25T17:43:00.189Z,1.20
2023-04-25T17:45:26.841Z,1.65
2023-04-25T17:47:53.517Z,1.10
2023-04-25T17:50:20.697Z,0.90
2023-04-25T17:52:48.354Z,1.15
2023-04-25T17:55:15.194Z,1.00
2023-04-25T17:57:41.698Z,1.33
2023-04-25T18:00:09.345Z,1.48
2023-04-25T18:02:36.699Z,1.40
2023-04-25T18:05:09.894Z,1.30
2023-04-25T18:07:37.106Z,1.35
2023-04-25T18:10:06.848Z,1.40
2023-04-25T18:12:34.119Z,1.30
2023-04-25T18:15:01.818Z,1.27
2023-04-25T18:17:28.448Z,1.02
2023-04-25T18:19:55.439Z,1.00
2023-04-25T18:22:22.298Z,1.27
2023-04-25T18:24:50.012Z,1.00
2023-04-25T18:27:16.654Z,1.60
2023-04-25T18:29:45.329Z,1.05
2023-04-25T18:32:12.266Z,0.70
2023-04-25T18:34:41.497Z,0.93
2023-04-25T18:37:08.050Z,0.82
2023-04-25T18:39:34.567Z,1.00
2023-04-25T18:42:06.694Z,1.13
2023-04-25T18:44:36.556Z,1.00
2023-04-25T18:47:03.105Z,1.10
2023-04-25T18:49:29.605Z,1.20
2023-04-25T18:51:57.472Z,1.23
2023-04-25T18:54:23.979Z,1.30
2023-04-25T18:56:50.509Z,1.27
2023-04-25T18:59:18.050Z,1.35
2023-04-25T19:01:44.899Z,1.42
2023-04-25T19:04:11.579Z,1.00
2023-04-25T19:06:38.237Z,1.33
2023-04-25T19:09:04.756Z,1.95
2023-04-25T19:11:31.286Z,1.10
2023-04-25T19:13:57.837Z,1.10
2023-04-25T19:16:26.400Z,1.25
2023-04-25T19:18:55.295Z,1.20
2023-04-25T19:21:22.644Z,1.00
2023-04-25T19:23:49.230Z,1.55
2023-04-25T19:26:15.702Z,1.38
2023-04-25T19:28:44.755Z,1.40
2023-04-25T19:31:12.991Z,1.75
2023-04-25T19:33:39.592Z,1.55
2023-04-25T19:36:06.139Z,2.08
2023-04-25T19:38:32.674Z,1.70
2023-04-25T19:40:59.241Z,2.30
2023-04-25T19:43:26.137Z,1.80
2023-04-25T19:45:53.964Z,1.60
2023-04-25T19:48:21.128Z,1.73
2023-04-25T19:50:47.639Z,1.95
2023-04-25T19:53:14.168Z,1.80
2023-04-25T19:55:41.234Z,2.30
2023-04-25T19:58:08.082Z,1.67
2023-04-25T20:00:34.596Z,1.65
2023-04-25T20:03:02.152Z,1.80
2023-04-25T20:05:28.917Z,1.67
2023-04-25T20:07:55.422Z,2.00
2023-04-25T20:10:22.285Z,1.40
2023-04-25T20:12:49.417Z,1.70
2023-04-25T20:15:17.878Z,1.60
2023-04-25T20:17:44.436Z,2.22
2023-04-25T20:20:11.817Z,1.45
2023-04-25T20:22:40.420Z,1.75
2023-04-25T20:25:09.167Z,1.90
2023-04-25T20:27:38.019Z,2.17
2023-04-25T20:30:08.637Z,2.03
2023-04-25T20:32:36.022Z,1.98
2023-04-25T20:35:03.953Z,2.45
2023-04-25T20:37:33.623Z,2.08
2023-04-25T20:40:00.989Z,2.40
2023-04-25T20:42:27.608Z,2.30
2023-04-25T20:44:54.691Z,2.55
2023-04-25T20:47:21.896Z,2.60
2023-04-25T20:49:48.529Z,2.60
2023-04-25T20:52:16.087Z,2.30
2023-04-25T20:54:42.836Z,2.63
2023-04-25T20:57:09.483Z,2.60
2023-04-25T20:59:36.326Z,2.70
2023-04-25T21:02:02.927Z,3.08
2023-04-25T21:04:29.493Z,2.53
2023-04-25T21:06:55.990Z,2.13
2023-04-25T21:09:22.429Z,2.50
2023-04-25T21:11:48.914Z,2.90
2023-04-25T21:14:16.489Z,2.63
2023-04-25T21:16:43.046Z,3.30
2023-04-25T21:19:09.639Z,3.15
2023-04-25T21:21:36.181Z,3.50
2023-04-25T21:24:02.932Z,2.95
2023-04-25T21:26:29.431Z,2.65
2023-04-25T21:28:55.919Z,2.58
2023-04-25T21:31:22.547Z,2.80
2023-04-25T21:33:49.074Z,2.65
2023-04-25T21:36:15.904Z,3.22
2023-04-25T21:38:42.424Z,3.67
2023-04-25T21:41:08.983Z,3.13
2023-04-25T21:43:36.719Z,3.60
2023-04-25T21:48:32.612Z,3.80
2023-04-25T21:50:59.245Z,4.20
2023-04-25T21:53:26.792Z,4.07
2023-04-25T21:55:53.412Z,5.20
2023-04-25T21:58:19.870Z,7.00
2023-04-25T22:00:46.358Z,6.88
2023-04-25T22:03:16.097Z,4.93
2023-04-25T22:05:42.834Z,5.03
2023-04-25T22:08:09.661Z,5.00
2023-04-25T22:10:36.220Z,5.38
2023-04-25T22:13:02.739Z,3.95
2023-04-25T22:15:29.569Z,3.92
2023-04-25T22:17:56.116Z,3.83
2023-04-25T22:20:26.182Z,3.53
2023-04-25T22:22:54.505Z,4.05
2023-04-25T22:25:21.298Z,3.03
2023-04-25T22:27:48.240Z,3.00
2023-04-25T22:30:15.020Z,2.90
2023-04-25T22:32:42.012Z,2.60
2023-04-25T22:35:09.295Z,2.88
2023-04-25T22:37:36.178Z,2.80
2023-04-25T22:40:07.132Z,2.22
2023-04-25T22:42:40.278Z,2.35
2023-04-25T22:45:08.278Z,2.50
2023-04-25T22:47:38.733Z,2.25
2023-04-25T22:50:13.308Z,2.30
2023-04-25T22:52:40.563Z,2.15
2023-04-25T22:55:07.389Z,1.65
2023-04-25T22:57:36.901Z,2.20
2023-04-25T23:00:09.397Z,2.60
2023-04-25T23:02:36.096Z,2.73
2023-04-25T23:05:02.650Z,2.20
2023-04-25T23:07:29.190Z,3.58
2023-04-25T23:09:55.723Z,2.58
2023-04-25T23:12:22.770Z,2.47
2023-04-25T23:14:51.151Z,2.33
2023-04-25T23:17:17.661Z,2.35
2023-04-25T23:19:45.206Z,2.83
2023-04-25T23:22:11.772Z,3.17
2023-04-25T23:24:41.620Z,3.22
2023-04-25T23:27:08.171Z,2.60
2023-04-25T23:29:34.817Z,3.10
2023-04-25T23:32:04.489Z,2.80
2023-04-25T23:34:32.053Z,2.30
2023-04-25T23:37:01.246Z,2.45
2023-04-25T23:39:28.240Z,2.60
2023-04-25T23:41:55.034Z,2.60
2023-04-25T23:44:22.189Z,2.53
2023-04-25T23:46:49.611Z,2.42
2023-04-25T23:49:16.117Z,2.53
2023-04-25T23:51:43.077Z,3.72
2023-04-25T23:54:09.617Z,2.92
2023-04-25T23:56:36.202Z,2.42
2023-04-25T23:59:03.812Z,3.05
